createdAt,value
2023-06-10T00:00:24.839Z,6.88
2023-06-10T00:02:28.082Z,7.95
2023-06-10T00:04:31.010Z,6.65
2023-06-10T00:06:36.786Z,8.52
2023-06-10T00:08:40.872Z,7.95
2023-06-10T00:10:43.757Z,7.47
2023-06-10T00:12:47.932Z,7.88
2023-06-10T00:14:52.710Z,8.50
2023-06-10T00:16:56.276Z,6.25
2023-06-10T00:19:02.329Z,7.43
2023-06-10T00:21:05.876Z,12.05
2023-06-10T00:23:10.581Z,5.95
2023-06-10T00:25:13.567Z,6.95
2023-06-10T00:27:16.499Z,9.65
2023-06-10T00:29:21.456Z,7.75
2023-06-10T00:31:24.454Z,7.00
2023-06-10T00:33:27.342Z,8.70
2023-06-10T00:35:30.181Z,10.05
2023-06-10T00:37:33.164Z,7.13
2023-06-10T00:39:36.151Z,6.88
2023-06-10T00:41:40.913Z,7.50
2023-06-10T00:43:43.842Z,6.78
2023-06-10T00:45:48.064Z,9.82
2023-06-10T00:47:50.970Z,7.35
2023-06-10T00:49:56.626Z,10.02
2023-06-10T00:52:02.295Z,9.30
2023-06-10T00:54:06.347Z,11.23
2023-06-10T00:56:10.038Z,10.52
2023-06-10T00:58:13.516Z,8.45
2023-06-10T01:00:17.209Z,8.30
2023-06-10T01:02:21.568Z,8.50
2023-06-10T01:04:24.873Z,8.32
2023-06-10T01:06:38.469Z,7.43
2023-06-10T01:08:49.644Z,8.98
2023-06-10T01:10:55.617Z,8.95
2023-06-10T01:13:03.547Z,7.20
2023-06-10T01:15:08.985Z,7.55
2023-06-10T01:17:12.695Z,10.98
2023-06-10T01:19:18.893Z,9.07
2023-06-10T01:21:25.839Z,10.73
2023-06-10T01:23:29.334Z,9.75
2023-06-10T01:25:33.943Z,7.50
2023-06-10T01:27:41.063Z,10.30
2023-06-10T01:29:49.370Z,7.90
2023-06-10T01:32:04.406Z,8.75
2023-06-10T01:34:11.888Z,7.53
2023-06-10T01:36:17.371Z,9.32
2023-06-10T01:38:22.520Z,9.40
2023-06-10T01:40:27.333Z,8.43
2023-06-10T01:42:30.661Z,8.82
2023-06-10T01:44:34.243Z,9.13
2023-06-10T01:46:37.563Z,6.90
2023-06-10T01:48:40.738Z,7.45
2023-06-10T01:50:44.859Z,8.80
2023-06-10T01:52:47.789Z,5.78
2023-06-10T01:54:51.920Z,8.13
2023-06-10T01:56:54.813Z,6.57
2023-06-10T01:59:00.230Z,6.68
2023-06-10T02:01:03.217Z,10.63
2023-06-10T02:03:06.386Z,8.15
2023-06-10T02:05:09.882Z,7.82
2023-06-10T02:07:13.320Z,7.55
2023-06-10T02:09:16.294Z,7.82
2023-06-10T02:11:20.575Z,7.40
2023-06-10T02:13:23.408Z,8.27
2023-06-10T02:15:30.645Z,8.55
2023-06-10T02:17:33.637Z,8.68
2023-06-10T02:19:37.700Z,6.53
2023-06-10T02:21:40.678Z,8.75
2023-06-10T02:23:43.649Z,6.93
2023-06-10T02:25:46.532Z,7.28
2023-06-10T02:27:50.941Z,7.82
2023-06-10T02:29:54.324Z,7.50
2023-06-10T02:31:57.813Z,6.35
2023-06-10T02:34:01.340Z,6.40
2023-06-10T02:36:04.739Z,7.47
2023-06-10T02:38:07.634Z,8.27
2023-06-10T02:40:13.884Z,7.88
2023-06-10T02:42:16.782Z,7.25
2023-06-10T02:44:21.695Z,5.85
2023-06-10T02:46:25.086Z,5.57
2023-06-10T02:48:30.240Z,5.93
2023-06-10T02:50:33.967Z,8.15
2023-06-10T02:52:59.857Z,7.20
2023-06-10T02:55:02.888Z,6.93
2023-06-10T02:57:06.518Z,7.60
2023-06-10T02:59:09.489Z,9.30
2023-06-10T03:01:14.187Z,10.60
2023-06-10T03:03:28.702Z,8.48
2023-06-10T03:05:39.963Z,8.77
2023-06-10T03:07:43.569Z,9.05
2023-06-10T03:09:46.479Z,11.02
2023-06-10T03:11:50.994Z,11.45
2023-06-10T03:13:54.744Z,7.60
2023-06-10T03:15:58.796Z,7.10
2023-06-10T03:20:11.172Z,9.05
2023-06-10T03:22:17.146Z,6.82
2023-06-10T03:24:27.206Z,10.15
2023-06-10T03:26:30.111Z,7.72
2023-06-10T03:28:33.164Z,8.68
2023-06-10T03:30:36.061Z,14.05
2023-06-10T03:32:38.969Z,9.70
2023-06-10T03:34:46.666Z,9.18
2023-06-10T03:36:50.109Z,8.07
2023-06-10T03:38:54.935Z,7.15
2023-06-10T03:40:58.336Z,10.05
2023-06-10T03:43:01.694Z,8.63
2023-06-10T03:45:07.013Z,11.50
2023-06-10T03:47:11.832Z,9.70
2023-06-10T03:49:13.566Z,10.85
2023-06-10T03:51:18.539Z,8.50
2023-06-10T03:53:28.691Z,8.40
2023-06-10T03:55:32.241Z,10.20
2023-06-10T03:57:36.628Z,9.38
2023-06-10T03:59:39.566Z,8.63
2023-06-10T04:01:42.828Z,8.50
2023-06-10T04:03:45.787Z,10.65
2023-06-10T04:05:48.701Z,12.35
2023-06-10T04:07:52.936Z,7.65
2023-06-10T04:11:58.667Z,12.43
2023-06-10T04:14:02.105Z,12.77
2023-06-10T04:16:05.411Z,10.07
2023-06-10T04:18:09.496Z,12.98
2023-06-10T04:20:12.930Z,9.75
2023-06-10T04:22:19.662Z,9.85
2023-06-10T04:24:23.925Z,10.77
2023-06-10T04:28:30.061Z,10.70
2023-06-10T04:30:33.339Z,13.77
2023-06-10T04:32:37.457Z,10.68
2023-06-10T04:34:42.210Z,10.00
2023-06-10T04:36:45.094Z,11.45
2023-06-10T04:38:48.341Z,12.45
2023-06-10T04:40:52.715Z,13.38
2023-06-10T04:42:57.314Z,11.25
2023-06-10T04:45:00.555Z,12.18
2023-06-10T04:47:04.124Z,9.90
2023-06-10T04:49:07.129Z,10.77
2023-06-10T04:51:09.992Z,16.63
2023-06-10T04:53:13.015Z,10.32
2023-06-10T04:55:19.766Z,11.45
2023-06-10T04:57:23.966Z,11.25
2023-06-10T04:59:26.975Z,13.40
2023-06-10T05:01:29.852Z,12.18
2023-06-10T05:03:32.849Z,11.02
2023-06-10T05:05:35.914Z,16.83
2023-06-10T05:07:38.800Z,11.73
2023-06-10T05:09:41.620Z,12.27
2023-06-10T05:11:44.521Z,12.40
2023-06-10T05:13:48.813Z,15.68
2023-06-10T05:15:51.754Z,13.25
2023-06-10T05:17:54.711Z,12.60
2023-06-10T05:19:57.941Z,12.82
2023-06-10T05:22:00.808Z,12.48
2023-06-10T05:24:03.678Z,12.10
2023-06-10T05:26:06.534Z,16.42
2023-06-10T05:28:12.900Z,10.73
2023-06-10T05:30:19.835Z,11.02
2023-06-10T05:34:26.121Z,11.40
2023-06-10T05:36:28.973Z,12.63
2023-06-10T05:38:31.754Z,11.45
2023-06-10T05:40:34.572Z,14.60
2023-06-10T05:42:37.455Z,10.98
2023-06-10T05:44:40.421Z,13.63
2023-06-10T05:46:44.654Z,11.80
2023-06-10T05:48:47.511Z,11.07
2023-06-10T05:50:50.281Z,9.90
2023-06-10T05:52:54.743Z,13.85
2023-06-10T05:54:57.611Z,10.82
2023-06-10T05:57:00.562Z,14.10
2023-06-10T05:59:03.410Z,12.80
2023-06-10T06:01:06.298Z,9.77
2023-06-10T06:03:11.386Z,11.82
2023-06-10T06:05:14.579Z,12.35
2023-06-10T06:07:18.005Z,12.20
2023-06-10T06:09:20.928Z,11.50
2023-06-10T06:11:24.206Z,13.90
2023-06-10T06:13:27.124Z,10.73
2023-06-10T06:15:30.027Z,10.52
2023-06-10T06:17:32.899Z,12.25
2023-06-10T06:19:37.087Z,10.00
2023-06-10T06:21:39.964Z,11.30
2023-06-10T06:23:42.873Z,14.80
2023-06-10T06:25:45.742Z,9.23
2023-06-10T06:27:48.618Z,9.88
2023-06-10T06:29:51.771Z,12.75
2023-06-10T06:31:55.208Z,9.75
2023-06-10T06:34:01.022Z,10.93
2023-06-10T06:36:05.658Z,8.05
2023-06-10T06:38:08.442Z,9.73
2023-06-10T06:40:15.076Z,8.13
2023-06-10T06:42:17.951Z,8.85
2023-06-10T06:44:53.143Z,8.50
2023-06-10T06:46:55.963Z,9.00
2023-06-10T06:48:58.967Z,8.88
2023-06-10T06:51:01.869Z,7.03
2023-06-10T06:53:06.815Z,8.65
2023-06-10T06:55:10.568Z,8.00
2023-06-10T06:57:13.636Z,7.75
2023-06-10T06:59:17.516Z,6.93
2023-06-10T07:01:20.743Z,6.43
2023-06-10T07:03:23.696Z,5.68
2023-06-10T07:05:28.272Z,7.72
2023-06-10T07:07:31.292Z,9.15
2023-06-10T07:09:35.547Z,5.60
2023-06-10T07:11:38.506Z,6.57
2023-06-10T07:13:41.305Z,8.57
2023-06-10T07:15:44.111Z,7.05
2023-06-10T07:17:47.121Z,5.15
2023-06-10T07:19:50.025Z,7.65
2023-06-10T07:21:52.935Z,9.48
2023-06-10T07:23:55.802Z,5.95
2023-06-10T07:26:00.040Z,5.65
2023-06-10T07:28:02.868Z,6.72
2023-06-10T07:30:07.847Z,5.60
2023-06-10T07:32:10.794Z,6.55
2023-06-10T07:34:13.601Z,10.88
2023-06-10T07:36:16.539Z,5.88
2023-06-10T07:38:19.620Z,5.90
2023-06-10T07:40:22.460Z,4.43
2023-06-10T07:42:26.636Z,6.15
2023-06-10T07:46:32.283Z,5.18
2023-06-10T07:48:35.159Z,6.43
2023-06-10T07:50:38.096Z,6.85
2023-06-10T07:52:40.894Z,6.13
2023-06-10T07:54:43.773Z,8.85
2023-06-10T07:56:46.601Z,5.28
2023-06-10T07:58:50.813Z,5.55
2023-06-10T08:02:56.805Z,5.85
2023-06-10T08:04:59.824Z,8.73
2023-06-10T08:07:02.809Z,5.68
2023-06-10T08:09:15.100Z,7.88
2023-06-10T08:11:17.995Z,7.28
2023-06-10T08:13:20.941Z,4.43
2023-06-10T08:15:25.156Z,4.97
2023-06-10T08:19:31.809Z,5.38
2023-06-10T08:21:34.644Z,6.72
2023-06-10T08:23:37.548Z,6.80
2023-06-10T08:25:40.497Z,7.40
2023-06-10T08:27:43.345Z,12.32
2023-06-10T08:29:46.165Z,8.82
2023-06-10T08:31:50.406Z,8.35
2023-06-10T08:35:56.123Z,6.28
2023-06-10T08:37:58.911Z,9.27
2023-06-10T08:40:02.189Z,5.88
2023-06-10T08:42:14.938Z,8.43
2023-06-10T08:44:24.306Z,6.30
2023-06-10T08:46:27.509Z,7.40
2023-06-10T08:48:33.113Z,6.97
2023-06-10T08:50:38.458Z,6.78
2023-06-10T08:52:45.578Z,7.53
2023-06-10T08:54:56.554Z,5.88
2023-06-10T08:57:01.546Z,5.93
2023-06-10T08:59:05.323Z,6.22
2023-06-10T09:01:08.417Z,5.22
2023-06-10T09:03:11.674Z,8.38
2023-06-10T09:05:16.183Z,6.63
2023-06-10T09:07:19.387Z,6.25
2023-06-10T09:09:22.281Z,8.50
2023-06-10T09:11:25.085Z,9.73
2023-06-10T09:13:27.977Z,6.30
2023-06-10T09:15:30.932Z,9.50
2023-06-10T09:17:34.010Z,11.13
2023-06-10T09:19:37.682Z,13.23
2023-06-10T09:21:41.878Z,12.20
2023-06-10T09:25:47.704Z,8.60
2023-06-10T09:27:54.716Z,7.63
2023-06-10T09:29:58.835Z,6.13
2023-06-10T09:32:03.257Z,7.55
2023-06-10T09:34:08.478Z,8.23
2023-06-10T09:36:11.349Z,12.77
2023-06-10T09:38:17.563Z,7.75
2023-06-10T09:40:20.508Z,8.25
2023-06-10T09:42:23.528Z,8.43
2023-06-10T09:44:26.616Z,9.02
2023-06-10T09:46:33.620Z,9.55
2023-06-10T09:48:43.879Z,7.60
2023-06-10T09:50:47.829Z,11.02
2023-06-10T09:52:50.667Z,8.95
2023-06-10T09:54:55.350Z,8.43
2023-06-10T09:56:59.831Z,7.90
2023-06-10T09:59:02.950Z,10.65
2023-06-10T10:01:08.876Z,11.02
2023-06-10T10:03:12.416Z,6.78
2023-06-10T10:05:16.895Z,7.25
2023-06-10T10:07:20.059Z,9.77
2023-06-10T10:09:22.911Z,9.23
2023-06-10T10:11:28.371Z,9.25
2023-06-10T10:13:35.549Z,7.80
2023-06-10T10:15:42.487Z,8.15
2023-06-10T10:17:51.525Z,10.02
2023-06-10T10:20:00.331Z,6.18
2023-06-10T10:22:09.814Z,7.55
2023-06-10T10:24:18.331Z,8.23
2023-06-10T10:26:23.463Z,8.00
2023-06-10T10:28:36.628Z,6.78
2023-06-10T10:30:42.784Z,11.20
2023-06-10T10:32:54.269Z,8.82
2023-06-10T10:35:05.869Z,7.68
2023-06-10T10:37:08.981Z,7.80
2023-06-10T10:39:13.185Z,8.57
2023-06-10T10:41:17.043Z,8.00
2023-06-10T10:43:20.412Z,7.18
2023-06-10T10:45:24.947Z,5.70
2023-06-10T10:47:30.344Z,7.35
2023-06-10T10:49:35.737Z,8.20
2023-06-10T10:51:38.581Z,7.28
2023-06-10T10:53:41.895Z,9.43
2023-06-10T10:55:59.679Z,5.10
2023-06-10T10:58:06.046Z,5.18
2023-06-10T11:00:12.184Z,7.38
2023-06-10T11:02:19.927Z,6.57
2023-06-10T11:04:22.989Z,8.13
2023-06-10T11:06:26.255Z,5.25
2023-06-10T11:08:48.329Z,7.72
2023-06-10T11:10:53.978Z,6.05
2023-06-10T11:12:56.909Z,5.00
2023-06-10T11:15:01.336Z,6.20
2023-06-10T11:17:21.705Z,7.43
2023-06-10T11:19:35.547Z,7.13
2023-06-10T11:22:00.968Z,4.65
2023-06-10T11:24:14.469Z,5.05
2023-06-10T11:26:23.259Z,5.10
2023-06-10T11:28:29.931Z,4.70
2023-06-10T11:30:37.000Z,3.70
2023-06-10T11:32:45.153Z,6.13
2023-06-10T11:34:54.631Z,8.73
2023-06-10T11:36:58.064Z,4.47
2023-06-10T11:39:02.767Z,5.13
2023-06-10T11:41:05.637Z,8.15
2023-06-10T11:43:08.697Z,5.25
2023-06-10T11:45:12.366Z,5.25
2023-06-10T11:47:15.283Z,7.28
2023-06-10T11:49:19.923Z,5.18
2023-06-10T11:51:23.390Z,4.72
2023-06-10T11:53:26.230Z,5.47
2023-06-10T11:55:43.097Z,4.80
2023-06-10T11:57:46.049Z,4.70
2023-06-10T11:59:48.959Z,4.63
2023-06-10T12:01:51.855Z,5.07
2023-06-10T12:04:01.981Z,5.93
2023-06-10T12:06:08.145Z,7.50
2023-06-10T12:08:12.152Z,4.68
2023-06-10T12:12:30.694Z,4.40
2023-06-10T12:14:52.620Z,4.45
2023-06-10T12:16:55.540Z,4.35
2023-06-10T12:19:04.466Z,4.65
2023-06-10T12:21:19.570Z,5.28
2023-06-10T12:23:22.595Z,3.95
2023-06-10T12:25:29.346Z,3.55
2023-06-10T12:27:33.189Z,6.95
2023-06-10T12:29:36.066Z,3.92
2023-06-10T12:31:54.422Z,5.72
2023-06-10T12:34:09.894Z,7.75
2023-06-10T12:36:19.478Z,7.45
2023-06-10T12:38:28.099Z,6.35
2023-06-10T12:40:32.462Z,4.82
2023-06-10T12:42:36.227Z,8.38
2023-06-10T12:44:42.103Z,4.13
2023-06-10T12:46:45.199Z,4.30
2023-06-10T12:48:53.189Z,4.32
2023-06-10T12:50:57.408Z,6.13
2023-06-10T12:53:01.617Z,5.97
2023-06-10T12:55:05.392Z,7.45
2023-06-10T12:57:08.523Z,5.15
2023-06-10T12:59:11.349Z,6.60
2023-06-10T13:01:15.652Z,4.38
2023-06-10T13:03:18.679Z,4.43
2023-06-10T13:05:22.349Z,7.20
2023-06-10T13:07:26.260Z,5.97
2023-06-10T13:09:30.444Z,8.43
2023-06-10T13:11:33.305Z,4.60
2023-06-10T13:13:39.277Z,6.55
2023-06-10T13:15:44.428Z,6.50
2023-06-10T13:17:53.442Z,5.80
2023-06-10T13:19:56.657Z,4.25
2023-06-10T13:21:59.530Z,3.47
2023-06-10T13:24:02.454Z,4.72
2023-06-10T13:26:06.646Z,6.03
2023-06-10T13:28:09.527Z,4.68
2023-06-10T13:30:13.629Z,6.72
2023-06-10T13:34:19.248Z,5.22
2023-06-10T13:36:22.138Z,5.88
2023-06-10T13:38:25.194Z,3.38
2023-06-10T13:40:28.099Z,8.48
2023-06-10T13:42:32.496Z,4.75
2023-06-10T13:44:37.244Z,5.18
2023-06-10T13:46:40.094Z,4.00
2023-06-10T13:48:43.100Z,6.20
2023-06-10T13:50:46.639Z,4.63
2023-06-10T13:52:49.576Z,4.20
2023-06-10T13:54:52.403Z,4.53
2023-06-10T13:56:55.638Z,5.30
2023-06-10T13:59:01.277Z,6.80
2023-06-10T14:01:06.394Z,4.90
2023-06-10T14:03:09.320Z,3.55
2023-06-10T14:05:12.565Z,4.80
2023-06-10T14:07:16.518Z,7.55
2023-06-10T14:09:20.105Z,3.80
2023-06-10T14:11:22.888Z,5.05
2023-06-10T14:13:25.679Z,6.28
2023-06-10T14:15:29.825Z,5.78
2023-06-10T14:17:32.623Z,4.95
2023-06-10T14:19:35.544Z,4.18
2023-06-10T14:21:38.422Z,6.10
2023-06-10T14:23:42.561Z,4.13
2023-06-10T14:25:46.886Z,5.53
2023-06-10T14:27:51.737Z,5.07
2023-06-10T14:29:54.560Z,6.38
2023-06-10T14:31:58.776Z,5.20
2023-06-10T14:34:01.627Z,5.07
2023-06-10T14:36:04.584Z,6.47
2023-06-10T14:38:08.527Z,5.00
2023-06-10T14:42:14.475Z,3.50
2023-06-10T14:44:17.284Z,6.18
2023-06-10T14:46:21.868Z,4.30
2023-06-10T14:48:26.155Z,5.53
2023-06-10T14:50:31.333Z,5.82
2023-06-10T14:52:34.156Z,6.05
2023-06-10T14:54:37.018Z,5.60
2023-06-10T14:56:39.811Z,7.13
2023-06-10T14:58:42.659Z,5.15
2023-06-10T15:00:45.553Z,8.82
2023-06-10T15:02:48.938Z,6.22
2023-06-10T15:04:53.170Z,7.75
2023-06-10T15:06:56.314Z,4.38
2023-06-10T15:08:59.114Z,4.87
2023-06-10T15:11:02.312Z,3.53
2023-06-10T15:13:05.231Z,6.50
2023-06-10T15:15:08.866Z,4.63
2023-06-10T15:17:11.950Z,4.82
2023-06-10T15:19:15.149Z,4.28
2023-06-10T15:21:19.306Z,4.20
2023-06-10T15:23:22.179Z,6.60
2023-06-10T15:25:31.431Z,4.95
2023-06-10T15:27:34.468Z,4.50
2023-06-10T15:29:37.297Z,4.82
2023-06-10T15:31:40.409Z,4.30
2023-06-10T15:33:45.823Z,4.85
2023-06-10T15:35:50.634Z,5.07
2023-06-10T15:37:54.973Z,3.30
2023-06-10T15:39:57.896Z,3.45
2023-06-10T15:42:00.765Z,3.55
2023-06-10T15:44:03.708Z,4.53
2023-06-10T15:46:06.726Z,3.67
2023-06-10T15:48:09.597Z,3.38
2023-06-10T15:50:12.469Z,5.25
2023-06-10T15:52:15.456Z,7.90
2023-06-10T15:54:19.781Z,6.82
2023-06-10T15:56:23.716Z,4.30
2023-06-10T15:58:26.654Z,5.45
2023-06-10T16:00:29.438Z,6.30
2023-06-10T16:02:35.037Z,4.38
2023-06-10T16:04:39.605Z,4.82
2023-06-10T16:06:42.469Z,4.32
2023-06-10T16:08:46.522Z,4.70
2023-06-10T16:12:53.724Z,4.60
2023-06-10T16:14:56.557Z,5.15
2023-06-10T16:16:59.641Z,5.82
2023-06-10T16:19:02.552Z,7.20
2023-06-10T16:21:06.532Z,4.30
2023-06-10T16:25:12.393Z,4.47
2023-06-10T16:27:16.837Z,3.85
2023-06-10T16:29:19.741Z,7.32
2023-06-10T16:31:23.302Z,6.40
2023-06-10T16:33:26.119Z,4.45
2023-06-10T16:35:28.955Z,7.38
2023-06-10T16:37:31.817Z,4.70
2023-06-10T16:39:34.683Z,4.60
2023-06-10T16:41:37.556Z,5.80
2023-06-10T16:43:41.749Z,5.35
2023-06-10T16:45:44.630Z,4.20
2023-06-10T16:47:47.507Z,5.68
2023-06-10T16:49:51.128Z,6.13
2023-06-10T16:51:54.149Z,5.68
2023-06-10T16:53:57.061Z,4.45
2023-06-10T16:56:03.197Z,8.18
2023-06-10T16:58:06.451Z,6.82
2023-06-10T17:00:12.163Z,5.85
2023-06-10T17:02:15.282Z,5.63
2023-06-10T17:04:18.239Z,8.98
2023-06-10T17:06:21.178Z,4.57
2023-06-10T17:08:23.961Z,4.57
2023-06-10T17:10:26.801Z,7.55
2023-06-10T17:12:29.691Z,6.25
2023-06-10T17:14:32.511Z,4.22
2023-06-10T17:16:36.828Z,4.22
2023-06-10T17:18:39.808Z,4.93
2023-06-10T17:20:42.720Z,8.50
2023-06-10T17:22:45.607Z,5.45
2023-06-10T17:24:48.466Z,7.35
2023-06-10T17:26:51.377Z,4.05
2023-06-10T17:28:54.238Z,8.80
2023-06-10T17:30:57.197Z,5.50
2023-06-10T17:33:01.422Z,11.95
2023-06-10T17:35:04.656Z,4.55
2023-06-10T17:37:07.653Z,5.97
2023-06-10T17:39:10.677Z,4.82
2023-06-10T17:41:13.534Z,4.93
2023-06-10T17:43:16.566Z,7.47
2023-06-10T17:45:19.435Z,5.38
2023-06-10T17:47:22.300Z,5.82
2023-06-10T17:49:32.813Z,4.55
2023-06-10T17:51:37.549Z,5.35
2023-06-10T17:53:40.452Z,5.50
2023-06-10T17:55:43.258Z,5.32
2023-06-10T17:57:46.307Z,4.60
2023-06-10T17:59:49.373Z,3.53
2023-06-10T18:01:52.288Z,5.78
2023-06-10T18:03:58.365Z,4.80
2023-06-10T18:06:03.093Z,7.80
2023-06-10T18:08:06.486Z,5.93
2023-06-10T18:10:10.256Z,6.20
2023-06-10T18:12:13.257Z,3.90
2023-06-10T18:14:17.007Z,4.93
2023-06-10T18:16:20.039Z,5.25
2023-06-10T18:18:23.108Z,5.38
2023-06-10T18:20:26.285Z,5.90
2023-06-10T18:22:30.482Z,8.33
2023-06-10T18:24:33.369Z,6.20
2023-06-10T18:26:36.293Z,4.88
2023-06-10T18:28:39.290Z,5.13
2023-06-10T18:30:42.118Z,8.60
2023-06-10T18:32:45.043Z,5.97
2023-06-10T18:34:50.451Z,5.50
2023-06-10T18:36:53.301Z,6.07
2023-06-10T18:38:57.450Z,3.42
2023-06-10T18:43:03.650Z,6.82
2023-06-10T18:45:07.815Z,7.00
2023-06-10T18:47:11.774Z,4.70
2023-06-10T18:49:14.663Z,6.53
2023-06-10T18:51:17.592Z,5.95
2023-06-10T18:53:20.449Z,3.78
2023-06-10T18:55:24.732Z,5.43
2023-06-10T18:57:27.562Z,4.70
2023-06-10T18:59:30.369Z,4.90
2023-06-10T19:01:33.256Z,4.75
2023-06-10T19:03:36.840Z,6.60
2023-06-10T19:05:39.745Z,4.70
2023-06-10T19:07:42.583Z,4.25
2023-06-10T19:09:45.414Z,6.80
2023-06-10T19:11:49.582Z,4.78
2023-06-10T19:15:55.180Z,4.15
2023-06-10T19:17:58.053Z,8.35
2023-06-10T19:20:01.409Z,5.57
2023-06-10T19:22:04.333Z,16.63
2023-06-10T19:24:07.980Z,6.57
2023-06-10T19:26:10.875Z,4.45
2023-06-10T19:28:15.189Z,6.78
2023-06-10T19:30:19.097Z,7.05
2023-06-10T19:32:22.177Z,4.05
2023-06-10T19:34:25.237Z,4.72
2023-06-10T19:36:28.142Z,7.50
2023-06-10T19:38:30.996Z,8.32
2023-06-10T19:40:33.835Z,5.22
2023-06-10T19:42:38.311Z,7.85
2023-06-10T19:44:42.626Z,10.60
2023-06-10T19:48:51.171Z,3.67
2023-06-10T19:50:54.019Z,6.13
2023-06-10T19:52:56.850Z,4.30
2023-06-10T19:55:00.501Z,4.60
2023-06-10T19:57:04.449Z,3.95
2023-06-10T19:59:07.387Z,3.78
2023-06-10T20:01:11.575Z,7.15
2023-06-10T20:05:17.309Z,4.60
2023-06-10T20:07:20.116Z,4.25
2023-06-10T20:09:23.001Z,5.55
2023-06-10T20:11:26.637Z,4.00
2023-06-10T20:13:29.602Z,5.65
2023-06-10T20:15:32.373Z,5.63
2023-06-10T20:17:36.979Z,8.10
2023-06-10T20:19:39.926Z,4.93
2023-06-10T20:21:42.706Z,5.18
2023-06-10T20:23:45.641Z,5.38
2023-06-10T20:25:48.445Z,4.95
2023-06-10T20:27:51.930Z,5.57
2023-06-10T20:29:57.193Z,7.45
2023-06-10T20:32:00.369Z,8.80
2023-06-10T20:34:04.620Z,5.18
2023-06-10T20:38:10.637Z,6.70
2023-06-10T20:40:14.690Z,6.53
2023-06-10T20:42:17.607Z,4.97
2023-06-10T20:44:20.581Z,5.75
2023-06-10T20:46:23.468Z,5.03
2023-06-10T20:48:26.448Z,5.72
2023-06-10T20:50:32.638Z,5.35
2023-06-10T20:52:35.470Z,6.07
2023-06-10T20:54:38.364Z,5.68
2023-06-10T20:56:42.352Z,5.97
2023-06-10T20:58:45.371Z,8.20
2023-06-10T21:00:48.458Z,5.85
2023-06-10T21:02:51.425Z,7.18
2023-06-10T21:04:55.509Z,5.32
2023-06-10T21:06:59.766Z,6.40
2023-06-10T21:11:05.773Z,7.07
2023-06-10T21:13:08.565Z,9.27
2023-06-10T21:15:11.910Z,5.65
2023-06-10T21:17:15.591Z,5.97
2023-06-10T21:19:18.430Z,6.33
2023-06-10T21:21:21.431Z,7.20
2023-06-10T21:23:25.746Z,7.25
2023-06-10T21:27:31.456Z,7.85
2023-06-10T21:29:34.329Z,6.90
2023-06-10T21:31:37.713Z,6.23
2023-06-10T21:33:40.740Z,6.70
2023-06-10T21:35:43.826Z,6.30
2023-06-10T21:37:46.684Z,5.32
2023-06-10T21:39:50.892Z,8.00
2023-06-10T21:43:56.440Z,7.65
2023-06-10T21:46:00.662Z,8.90
2023-06-10T21:48:03.631Z,6.07
2023-06-10T21:50:07.662Z,7.05
2023-06-10T21:52:10.511Z,6.85
2023-06-10T21:54:13.646Z,9.13
2023-06-10T21:56:19.342Z,10.02
2023-06-10T21:58:22.289Z,8.63
2023-06-10T22:00:25.435Z,7.60
2023-06-10T22:02:28.767Z,8.13
2023-06-10T22:04:31.608Z,8.53
2023-06-10T22:06:35.022Z,12.23
2023-06-10T22:08:38.005Z,6.27
2023-06-10T22:10:42.421Z,8.35
2023-06-10T22:12:46.669Z,9.93
2023-06-10T22:16:52.765Z,7.00
2023-06-10T22:18:55.582Z,5.73
2023-06-10T22:20:58.402Z,8.40
2023-06-10T22:23:01.316Z,6.22
2023-06-10T22:25:04.301Z,7.70
2023-06-10T22:27:09.359Z,6.28
2023-06-10T22:29:18.927Z,6.82
2023-06-10T22:31:22.729Z,7.25
2023-06-10T22:33:25.867Z,5.55
2023-06-10T22:35:28.658Z,6.93
2023-06-10T22:37:31.493Z,7.45
2023-06-10T22:39:34.371Z,6.22
2023-06-10T22:41:37.181Z,5.28
2023-06-10T22:43:40.074Z,6.05
2023-06-10T22:45:44.355Z,6.50
2023-06-10T22:49:49.961Z,5.18
2023-06-10T22:51:52.809Z,5.63
2023-06-10T22:53:55.665Z,5.53
2023-06-10T22:55:58.532Z,4.97
2023-06-10T22:58:01.692Z,7.80
2023-06-10T23:00:05.306Z,6.50
2023-06-10T23:02:09.753Z,9.00
2023-06-10T23:04:12.791Z,5.60
2023-06-10T23:06:16.874Z,6.45
2023-06-10T23:08:19.686Z,6.57
2023-06-10T23:10:22.534Z,5.88
2023-06-10T23:12:25.379Z,5.40
2023-06-10T23:14:28.208Z,5.88
2023-06-10T23:16:31.204Z,6.07
2023-06-10T23:18:36.122Z,10.18
2023-06-10T23:20:41.357Z,6.50
2023-06-10T23:22:44.174Z,5.70
2023-06-10T23:24:48.547Z,5.88
2023-06-10T23:26:51.387Z,7.57
2023-06-10T23:28:54.263Z,8.57
2023-06-10T23:30:57.747Z,6.78
2023-06-10T23:33:00.748Z,7.65
2023-06-10T23:35:05.749Z,5.85
2023-06-10T23:37:11.949Z,7.55
2023-06-10T23:39:15.883Z,8.88
2023-06-10T23:41:18.724Z,7.32
2023-06-10T23:43:21.653Z,8.73
2023-06-10T23:45:24.530Z,5.95
2023-06-10T23:47:27.551Z,7.13
2023-06-10T23:49:30.387Z,7.72
2023-06-10T23:51:35.097Z,6.60
2023-06-10T23:53:37.924Z,7.70
2023-06-10T23:55:40.928Z,8.63
2023-06-10T23:57:43.779Z,7.68
2023-06-10T23:59:46.669Z,4.88
